Time;durP1;ratioP1;P1;durP2;ratioP2;P2;SDS_P1;SDS_P2;PMS_P1;PMS_P2;Temp;Humidity;BMP_temperature;BMP_pressure;BME280_temperature;BME280_humidity;BME280_pressure;Samples;Min_cycle;Max_cycle;Signal;HPM_P1;HPM_P2
2024/01/18 00:01:01;;;;;;;2.33;0.50;;;;;;;10.66;100.00;148806.06;4960148;28;20231;-63
2024/01/18 00:03:29;;;;;;;2.10;0.67;;;;;;;10.53;100.00;148773.72;4958286;28;20229;-63
2024/01/18 00:05:56;;;;;;;1.80;0.63;;;;;;;10.48;100.00;148763.75;4955804;28;20301;-63
2024/01/18 00:08:22;;;;;;;2.00;0.43;;;;;;;10.41;100.00;148746.31;4961423;28;20234;-63
2024/01/18 00:10:49;;;;;;;2.03;1.00;;;;;;;10.39;100.00;148740.03;4962337;28;20528;-63
2024/01/18 00:13:15;;;;;;;1.20;0.50;;;;;;;10.18;100.00;148691.47;4950665;28;20257;-63
2024/01/18 00:15:42;;;;;;;1.70;0.60;;;;;;;10.27;100.00;148711.41;4961600;28;20232;-63
2024/01/18 00:18:10;;;;;;;0.60;0.60;;;;;;;10.38;100.00;148737.53;4961722;28;20235;-63
2024/01/18 00:20:38;;;;;;;2.30;0.80;;;;;;;10.39;100.00;148740.03;4962341;28;20319;-63
2024/01/18 00:23:05;;;;;;;2.37;0.60;;;;;;;10.32;100.00;148723.84;4945132;28;20227;-63
2024/01/18 00:25:31;;;;;;;0.43;0.30;;;;;;;10.21;100.00;148697.69;4958708;28;20724;-63
2024/01/18 00:27:58;;;;;;;1.10;0.40;;;;;;;10.33;100.00;148726.34;4956668;28;20228;-63
2024/01/18 00:30:24;;;;;;;1.90;0.60;;;;;;;10.30;100.00;148718.88;4959241;28;20709;-63
2024/01/18 00:32:51;;;;;;;1.07;0.50;;;;;;;10.30;100.00;148720.09;4956554;28;20227;-63
2024/01/18 00:35:18;;;;;;;1.87;0.70;;;;;;;10.22;100.00;148698.94;4959665;28;20246;-63
2024/01/18 00:37:46;;;;;;;2.00;0.97;;;;;;;10.31;100.00;148722.59;4957397;28;21802;-63
2024/01/18 00:40:13;;;;;;;1.17;0.60;;;;;;;10.39;100.00;148740.03;4954873;28;20259;-63
2024/01/18 00:42:40;;;;;;;1.73;0.53;;;;;;;10.47;100.00;148761.28;4961458;28;20227;-63
2024/01/18 00:45:08;;;;;;;1.57;0.60;;;;;;;10.48;100.00;148762.50;4956014;28;20226;-63
2024/01/18 00:47:34;;;;;;;1.90;0.50;;;;;;;10.45;100.00;148756.28;4959160;28;20230;-63
2024/01/18 00:50:01;;;;;;;1.97;0.43;;;;;;;10.40;100.00;148743.84;4957691;28;20611;-63
2024/01/18 00:52:28;;;;;;;2.20;0.60;;;;;;;10.41;100.00;148746.31;4958950;28;20320;-63
2024/01/18 00:54:56;;;;;;;2.73;0.60;;;;;;;10.38;100.00;148737.53;4956741;28;20769;-63
2024/01/18 00:57:23;;;;;;;1.67;0.60;;;;;;;10.51;100.00;148768.75;4960906;28;20215;-63
2024/01/18 00:59:49;;;;;;;1.60;0.60;;;;;;;10.60;100.00;148792.38;4958798;28;20215;-63
2024/01/18 01:02:16;;;;;;;2.40;0.80;;;;;;;10.55;100.00;148779.94;4959030;28;20250;-63
2024/01/18 01:04:42;;;;;;;1.80;0.50;;;;;;;10.60;100.00;148792.38;4957629;28;20572;-63
2024/01/18 01:07:09;;;;;;;2.20;0.60;;;;;;;10.63;100.00;148798.59;4957095;28;20231;-63
2024/01/18 01:09:35;;;;;;;2.10;0.40;;;;;;;10.77;100.00;148832.25;4960821;28;20231;-63
2024/01/18 01:12:04;;;;;;;2.67;0.60;;;;;;;10.82;100.00;148844.69;4957616;28;20709;-63
2024/01/18 01:14:31;;;;;;;1.73;0.33;;;;;;;10.78;100.00;148835.97;4957921;28;20236;-63
2024/01/18 01:16:58;;;;;;;4.07;0.70;;;;;;;10.73;100.00;148823.50;4959927;28;20223;-63
2024/01/18 01:19:24;;;;;;;0.60;0.40;;;;;;;10.73;100.00;148823.50;4960102;28;20233;-63
2024/01/18 01:21:51;;;;;;;2.30;0.87;;;;;;;10.75;100.00;148828.50;4955432;28;20232;-63
2024/01/18 01:24:17;;;;;;;1.33;0.50;;;;;;;10.69;100.00;148812.31;4958728;28;20233;-63
2024/01/18 01:26:44;;;;;;;1.13;0.47;;;;;;;10.66;100.00;148806.06;4958054;28;20248;-63
2024/01/18 01:29:12;;;;;;;2.10;0.60;;;;;;;10.59;100.00;148789.91;4954691;28;22651;-63
2024/01/18 01:31:38;;;;;;;0.80;0.40;;;;;;;10.68;100.00;148809.81;4958235;28;20757;-63
2024/01/18 01:34:05;;;;;;;1.67;0.50;;;;;;;10.69;100.00;148812.31;4955699;28;20589;-63
2024/01/18 01:36:32;;;;;;;1.83;0.40;;;;;;;10.63;100.00;148799.84;4959374;28;20227;-63
2024/01/18 01:38:58;;;;;;;1.80;0.40;;;;;;;10.61;100.00;148794.88;4956656;28;20233;-63
2024/01/18 01:41:25;;;;;;;3.80;1.00;;;;;;;10.57;100.00;148784.91;4959050;28;20230;-63
2024/01/18 01:43:58;;;;;;;4.47;0.77;;;;;;;10.61;100.00;148794.88;4957095;28;20227;-63
2024/01/18 01:46:27;;;;;;;0.90;0.40;;;;;;;10.70;100.00;148814.81;4957577;28;20237;-63
2024/01/18 01:49:00;;;;;;;4.73;0.50;;;;;;;10.68;100.00;148809.81;4957206;28;20309;-63
2024/01/18 01:51:28;;;;;;;1.53;0.50;;;;;;;10.46;100.00;148757.50;4957168;28;20233;-63
2024/01/18 01:53:54;;;;;;;1.87;0.53;;;;;;;10.31;100.00;148721.38;4956080;28;20221;-63
2024/01/18 01:56:21;;;;;;;2.17;0.77;;;;;;;10.13;100.00;148677.75;4959824;28;20224;-63
2024/01/18 01:58:50;;;;;;;1.37;0.60;;;;;;;10.06;100.00;148660.38;4958016;28;20360;-63
2024/01/18 02:01:17;;;;;;;3.60;0.83;;;;;;;10.00;100.00;148646.66;4957511;28;20716;-63
2024/01/18 02:03:49;;;;;;;4.40;0.80;;;;;;;9.92;100.00;148628.00;4963291;28;20234;-63
2024/01/18 02:06:17;;;;;;;0.80;0.50;;;;;;;9.86;100.00;148613.06;4955743;28;20235;-63
2024/01/18 02:08:47;;;;;;;2.83;0.70;;;;;;;9.83;100.00;148605.59;4959769;28;20275;-63
2024/01/18 02:11:14;;;;;;;4.30;0.70;;;;;;;9.80;100.00;148599.34;4955140;28;20250;-63
2024/01/18 02:13:40;;;;;;;2.33;0.83;;;;;;;9.82;100.00;148604.31;4958458;28;20250;-63
2024/01/18 02:16:07;;;;;;;1.00;0.47;;;;;;;9.80;100.00;148598.13;4953599;28;21083;-63
2024/01/18 02:18:35;;;;;;;0.80;0.60;;;;;;;9.74;100.00;148584.41;4959056;28;20236;-63
2024/01/18 02:21:04;;;;;;;2.80;0.87;;;;;;;9.74;100.00;148585.66;4955650;28;20328;-63
2024/01/18 02:23:33;;;;;;;1.67;0.60;;;;;;;9.82;100.00;148604.31;4955418;28;20239;-63
2024/01/18 02:26:01;;;;;;;1.60;0.60;;;;;;;9.79;100.00;148596.84;4956479;28;20729;-63
2024/01/18 02:28:28;;;;;;;2.37;0.60;;;;;;;9.74;100.00;148584.41;4959521;28;20245;-63
2024/01/18 02:30:54;;;;;;;4.47;0.63;;;;;;;9.73;100.00;148581.91;4955866;28;20223;-63
2024/01/18 02:33:21;;;;;;;3.53;0.60;;;;;;;9.86;100.00;148614.28;4957213;28;20227;-63
2024/01/18 02:35:48;;;;;;;3.30;0.70;;;;;;;9.92;100.00;148628.00;4953730;28;20231;-63
2024/01/18 02:38:14;;;;;;;1.60;0.70;;;;;;;9.87;100.00;148616.78;4954014;28;20243;-63
2024/01/18 02:40:41;;;;;;;2.93;0.73;;;;;;;9.89;100.00;148620.53;4957167;28;20240;-63
2024/01/18 02:43:10;;;;;;;2.27;0.70;;;;;;;9.88;100.00;148618.03;4955107;28;20224;-63
2024/01/18 02:45:37;;;;;;;2.03;0.73;;;;;;;9.92;100.00;148628.00;4958337;28;20259;-63
2024/01/18 02:48:05;;;;;;;2.83;0.60;;;;;;;9.90;100.00;148623.03;4955327;28;20231;-63
2024/01/18 02:50:31;;;;;;;1.03;0.60;;;;;;;9.88;100.00;148618.03;4958691;28;20688;-63
2024/01/18 02:52:58;;;;;;;2.43;0.60;;;;;;;9.92;100.00;148628.00;4953744;28;20231;-63
2024/01/18 02:55:25;;;;;;;3.87;0.87;;;;;;;9.88;100.00;148619.25;4958077;28;20595;-63
2024/01/18 02:57:53;;;;;;;2.97;0.80;;;;;;;9.89;100.00;148621.75;4953634;28;20219;-63
2024/01/18 03:00:21;;;;;;;2.20;0.53;;;;;;;9.94;100.00;148632.97;4957003;28;20770;-63
2024/01/18 03:02:48;;;;;;;3.47;0.70;;;;;;;10.00;100.00;148646.66;4955507;28;20227;-63
2024/01/18 03:05:15;;;;;;;2.77;0.73;;;;;;;9.98;100.00;148641.69;4954419;28;20234;-63
2024/01/18 03:07:41;;;;;;;3.80;1.40;;;;;;;9.99;100.00;148644.16;4959939;28;20593;-63
2024/01/18 03:10:09;;;;;;;2.57;0.70;;;;;;;10.08;100.00;148666.59;4954344;28;20231;-63
2024/01/18 03:12:37;;;;;;;1.63;0.50;;;;;;;10.04;100.00;148656.63;4957988;28;20250;-63
2024/01/18 03:15:05;;;;;;;1.90;0.53;;;;;;;10.03;100.00;148654.13;4953144;28;21363;-63
2024/01/18 03:17:33;;;;;;;1.87;0.57;;;;;;;10.01;100.00;148649.16;4957294;28;20317;-63
2024/01/18 03:19:59;;;;;;;1.93;0.60;;;;;;;10.16;100.00;148686.50;4955663;28;20239;-63
2024/01/18 03:22:26;;;;;;;6.20;0.73;;;;;;;10.12;100.00;148676.53;4960583;28;20241;-63
2024/01/18 03:24:53;;;;;;;3.43;0.60;;;;;;;10.06;100.00;148661.59;4948575;28;20222;-63
2024/01/18 03:27:20;;;;;;;1.63;0.50;;;;;;;10.10;100.00;148671.56;4961480;28;20247;-63
2024/01/18 03:29:46;;;;;;;4.13;1.10;;;;;;;10.04;100.00;148656.63;4967427;28;20234;-63
2024/01/18 03:32:13;;;;;;;3.07;0.97;;;;;;;9.84;100.00;148608.09;4957644;28;20237;-63
2024/01/18 03:34:41;;;;;;;3.77;1.70;;;;;;;9.66;100.00;148564.50;4961581;28;20271;-63
2024/01/18 03:37:07;;;;;;;3.97;2.03;;;;;;;8.93;100.00;148390.31;4958156;28;20227;-63
2024/01/18 03:39:36;;;;;;;2.73;1.63;;;;;;;8.82;100.00;148364.19;4961432;28;20331;-63
2024/01/18 03:42:02;;;;;;;4.90;1.90;;;;;;;8.57;100.00;148303.22;4957941;28;20815;-63
2024/01/18 03:44:29;;;;;;;3.37;2.30;;;;;;;8.37;100.00;148255.97;4959581;28;20590;-63
2024/01/18 03:46:55;;;;;;;3.50;2.70;;;;;;;8.14;100.00;148199.97;4960029;28;20230;-63
2024/01/18 03:49:22;;;;;;;3.30;2.57;;;;;;;7.79;100.00;148115.47;4963945;28;20696;-63
2024/01/18 03:51:50;;;;;;;5.00;2.50;;;;;;;7.68;100.00;148090.59;4961473;28;20227;-63
2024/01/18 03:54:16;;;;;;;4.73;2.67;;;;;;;7.60;100.00;148069.44;4960538;28;20231;-63
2024/01/18 03:56:43;;;;;;;4.23;2.83;;;;;;;7.52;100.00;148052.03;4961083;28;20250;-63
2024/01/18 03:59:10;;;;;;;4.50;2.67;;;;;;;7.32;100.00;148003.59;4959913;28;20241;-63
2024/01/18 04:01:36;;;;;;;5.20;2.67;;;;;;;7.29;100.00;147994.91;4965229;28;20234;-63
2024/01/18 04:04:03;;;;;;;3.63;2.80;;;;;;;7.24;100.00;147984.97;4958624;28;20743;-63
2024/01/18 04:06:30;;;;;;;3.63;2.97;;;;;;;7.22;100.00;147978.75;4959969;28;20657;-63
2024/01/18 04:08:58;;;;;;;4.77;2.50;;;;;;;7.21;100.00;147976.25;4960604;28;20235;-63
2024/01/18 04:11:24;;;;;;;5.97;3.13;;;;;;;6.99;100.00;147922.84;4962036;28;20239;-63
2024/01/18 04:13:51;;;;;;;3.40;2.87;;;;;;;6.82;100.00;147881.88;4966016;28;20222;-63
2024/01/18 04:16:18;;;;;;;4.23;3.17;;;;;;;6.63;100.00;147837.13;4958992;28;20233;-64
2024/01/18 04:18:47;;;;;;;5.17;3.60;;;;;;;6.52;100.00;147809.81;4961920;28;20698;-63
2024/01/18 04:21:14;;;;;;;1.33;1.23;;;;;;;6.11;100.00;147711.72;4963775;28;20235;-63
2024/01/18 04:23:41;;;;;;;0.00;0.00;;;;;;;5.55;100.00;147578.84;4962062;28;20223;-63
2024/01/18 04:26:09;;;;;;;0.00;0.00;;;;;;;5.49;100.00;147563.97;4949917;28;20222;-64
2024/01/18 04:28:35;;;;;;;0.00;0.00;;;;;;;5.17;100.00;147488.28;4951221;28;20245;-64
2024/01/18 04:31:02;;;;;;;0.00;0.00;;;;;;;4.76;100.00;147389.00;5165581;23;20867;-64
2024/01/18 04:33:29;;;;;;;0.00;0.00;;;;;;;4.69;100.00;147371.66;4986388;28;20221;-64
2024/01/18 04:35:55;;;;;;;0.00;0.00;;;;;;;4.49;100.00;147324.50;4994444;28;20224;-63
2024/01/18 04:38:22;;;;;;;0.00;0.00;;;;;;;4.39;100.00;147299.69;4994547;28;20558;-63
2024/01/18 04:40:48;;;;;;;0.00;0.00;;;;;;;4.47;100.00;147318.34;4995829;28;20232;-63
2024/01/18 04:43:16;;;;;;;0.00;0.00;;;;;;;4.38;100.00;147298.50;4975516;28;20726;-63
2024/01/18 04:45:43;;;;;;;0.00;0.00;;;;;;;4.17;100.00;147246.41;4978007;28;20229;-63
2024/01/18 04:48:10;;;;;;;0.00;0.00;;;;;;;4.04;100.00;147216.63;4974493;28;20226;-63
2024/01/18 04:50:36;;;;;;;0.00;0.00;;;;;;;3.80;100.00;147159.59;4976984;28;20230;-63
2024/01/18 04:53:03;;;;;;;0.00;0.00;;;;;;;3.53;100.00;147093.94;4972281;28;20648;-63
2024/01/18 04:55:31;;;;;;;0.00;0.00;;;;;;;3.23;100.00;147022.03;4974211;28;20233;-63
2024/01/18 04:57:58;;;;;;;0.00;0.00;;;;;;;3.19;100.00;147012.13;4975072;28;20693;-64
2024/01/18 05:00:26;;;;;;;0.00;0.00;;;;;;;3.20;100.00;147015.88;4975283;28;20236;-63
2024/01/18 05:02:53;;;;;;;0.00;0.00;;;;;;;3.28;100.00;147033.22;4970698;28;20230;-63
2024/01/18 05:05:20;;;;;;;0.00;0.00;;;;;;;3.10;100.00;146992.34;4974636;28;20241;-63
2024/01/18 05:07:47;;;;;;;0.00;0.00;;;;;;;3.17;100.00;147008.44;4976086;28;20313;-63
2024/01/18 05:10:14;;;;;;;0.00;0.00;;;;;;;3.17;100.00;147007.22;4973485;28;20241;-63
2024/01/18 05:12:40;;;;;;;0.00;0.00;;;;;;;3.20;100.00;147015.88;4977007;28;20252;-63
2024/01/18 05:15:08;;;;;;;0.00;0.00;;;;;;;3.23;100.00;147022.03;4973031;28;20816;-64
2024/01/18 05:17:41;;;;;;;0.00;0.00;;;;;;;3.29;100.00;147035.72;4974177;28;20229;-64
2024/01/18 05:20:08;;;;;;;0.00;0.00;;;;;;;3.33;100.00;147045.63;4972443;28;20723;-65
2024/01/18 05:22:36;;;;;;;0.00;0.00;;;;;;;3.30;100.00;147039.41;4976537;28;20242;-64
2024/01/18 05:25:03;;;;;;;0.00;0.00;;;;;;;3.29;100.00;147036.91;4974654;28;20827;-64
2024/01/18 05:27:30;;;;;;;0.00;0.00;;;;;;;3.30;100.00;147038.19;4973381;28;20220;-64
2024/01/18 05:29:56;;;;;;;0.00;0.00;;;;;;;3.22;100.00;147020.84;4954605;28;20314;-64
2024/01/18 05:32:23;;;;;;;0.00;0.00;;;;;;;3.27;100.00;147031.97;4974325;28;20327;-63
2024/01/18 05:34:51;;;;;;;0.00;0.00;;;;;;;3.02;100.00;146972.53;4978939;28;20636;-63
2024/01/18 05:37:22;;;;;;;0.00;0.00;;;;;;;2.94;100.00;146953.94;4972601;28;20240;-63
2024/01/18 05:39:49;;;;;;;0.00;0.00;;;;;;;2.87;100.00;146935.38;4976591;28;20236;-63
2024/01/18 05:42:15;;;;;;;0.00;0.00;;;;;;;2.79;100.00;146918.03;4972187;28;20237;-63
2024/01/18 05:44:42;;;;;;;0.00;0.00;;;;;;;2.84;100.00;146929.16;4974802;28;20701;-63
2024/01/18 05:47:09;;;;;;;0.00;0.00;;;;;;;2.80;100.00;146920.50;4969801;28;20237;-63
2024/01/18 05:49:35;;;;;;;0.00;0.00;;;;;;;2.80;100.00;146919.25;4975268;28;20233;-63
2024/01/18 05:52:04;;;;;;;0.00;0.00;;;;;;;2.76;100.00;146910.59;4971105;28;20284;-64
2024/01/18 05:54:30;;;;;;;0.00;0.00;;;;;;;2.89;100.00;146941.53;4979508;28;20697;-63
2024/01/18 05:56:57;;;;;;;0.00;0.00;;;;;;;2.78;100.00;146914.28;4990090;28;20221;-63
2024/01/18 05:59:23;;;;;;;0.00;0.00;;;;;;;2.73;100.00;146903.16;4976065;28;20229;-63
2024/01/18 06:01:50;;;;;;;0.00;0.00;;;;;;;2.78;100.00;146914.28;4974331;28;20229;-63
2024/01/18 06:04:17;;;;;;;0.00;0.00;;;;;;;2.76;100.00;146909.31;4973345;28;20256;-63
2024/01/18 06:06:44;;;;;;;0.00;0.00;;;;;;;2.74;100.00;146905.63;4976256;28;20237;-63
2024/01/18 06:09:14;;;;;;;0.00;0.00;;;;;;;2.84;100.00;146927.94;4972777;28;20246;-63
2024/01/18 06:11:41;;;;;;;0.00;0.00;;;;;;;2.89;100.00;146941.53;4974468;28;20255;-63
2024/01/18 06:14:07;;;;;;;0.00;0.00;;;;;;;2.86;100.00;146932.88;4974672;28;20224;-63
2024/01/18 06:16:34;;;;;;;0.00;0.00;;;;;;;2.84;100.00;146927.94;4972406;28;20224;-63
2024/01/18 06:19:00;;;;;;;0.00;0.00;;;;;;;2.90;100.00;146944.00;4969715;28;20693;-63
2024/01/18 06:21:27;;;;;;;0.00;0.00;;;;;;;2.95;100.00;146955.19;4975812;28;20229;-63
2024/01/18 06:23:54;;;;;;;0.00;0.00;;;;;;;3.04;100.00;146976.22;4970212;28;20237;-63
2024/01/18 06:26:22;;;;;;;0.00;0.00;;;;;;;3.03;100.00;146975.00;4974362;28;20231;-63
2024/01/18 06:28:48;;;;;;;0.00;0.00;;;;;;;3.16;100.00;147005.97;4975593;28;20229;-63
2024/01/18 06:31:15;;;;;;;0.00;0.00;;;;;;;3.21;100.00;147017.09;4970617;28;20242;-63
2024/01/18 06:33:42;;;;;;;0.00;0.00;;;;;;;3.23;100.00;147023.31;4966062;28;20319;-63
2024/01/18 06:36:09;;;;;;;0.00;0.00;;;;;;;3.25;100.00;147027.00;4973368;28;20217;-63
2024/01/18 06:38:36;;;;;;;0.00;0.00;;;;;;;3.29;100.00;147036.91;4978011;28;20278;-63
2024/01/18 06:41:02;;;;;;;0.00;0.00;;;;;;;3.29;100.00;147036.91;4975388;28;20232;-63
2024/01/18 06:43:30;;;;;;;0.00;0.00;;;;;;;2.91;100.00;146946.50;4974770;28;20237;-63
2024/01/18 06:45:57;;;;;;;0.00;0.00;;;;;;;2.66;100.00;146885.81;4970788;28;20332;-65
2024/01/18 06:48:23;;;;;;;0.00;0.00;;;;;;;2.53;100.00;146853.59;4973305;28;20241;-64
2024/01/18 06:50:51;;;;;;;0.00;0.00;;;;;;;2.46;100.00;146838.75;4975134;28;20476;-64
2024/01/18 06:53:17;;;;;;;0.00;0.00;;;;;;;2.43;100.00;146831.31;4971923;28;20589;-64
2024/01/18 06:55:44;;;;;;;0.00;0.00;;;;;;;2.30;100.00;146799.13;4971764;28;20230;-64
2024/01/18 06:58:11;;;;;;;0.00;0.00;;;;;;;2.31;100.00;146802.84;4972453;28;20226;-64
2024/01/18 07:00:39;;;;;;;0.00;0.00;;;;;;;2.26;100.00;146790.47;4981363;28;20590;-64
2024/01/18 07:03:07;;;;;;;0.00;0.00;;;;;;;2.10;100.00;146752.09;4973137;28;20226;-63
2024/01/18 07:05:33;;;;;;;0.00;0.00;;;;;;;2.13;100.00;146758.28;4974223;28;20220;-64
2024/01/18 07:08:00;;;;;;;0.00;0.00;;;;;;;2.20;100.00;146776.81;4974422;28;20223;-64
2024/01/18 07:10:27;;;;;;;0.00;0.00;;;;;;;1.90;100.00;146705.06;4974395;28;20784;-64
2024/01/18 07:12:53;;;;;;;0.00;0.00;;;;;;;1.92;100.00;146708.75;4970717;28;20551;-64
2024/01/18 07:15:20;;;;;;;0.00;0.00;;;;;;;1.94;100.00;146713.69;4975205;28;20244;-64
2024/01/18 07:17:49;;;;;;;0.00;0.00;;;;;;;1.96;100.00;146717.44;4974457;28;20284;-64
2024/01/18 07:20:16;;;;;;;0.00;0.00;;;;;;;1.95;100.00;146716.19;4972522;28;20228;-64
2024/01/18 07:22:42;;;;;;;0.00;0.00;;;;;;;1.84;100.00;146688.94;4977040;28;20237;-64
2024/01/18 07:25:09;;;;;;;0.00;0.00;;;;;;;1.82;100.00;146684.00;4971138;28;20232;-64
2024/01/18 07:27:36;;;;;;;0.00;0.00;;;;;;;1.76;100.00;146670.41;4972796;28;20700;-64
2024/01/18 07:30:03;;;;;;;0.00;0.00;;;;;;;1.80;100.00;146679.03;4971186;28;20952;-64
2024/01/18 07:32:29;;;;;;;0.00;0.00;;;;;;;1.72;100.00;146661.72;4978553;28;20613;-63
2024/01/18 07:34:57;;;;;;;0.00;0.00;;;;;;;1.73;100.00;146664.19;4972275;28;20240;-63
2024/01/18 07:37:24;;;;;;;0.00;0.00;;;;;;;1.75;100.00;146667.94;4963865;28;20230;-63
2024/01/18 07:39:51;;;;;;;0.00;0.00;;;;;;;1.85;100.00;146692.69;4976455;28;20233;-63
2024/01/18 07:42:18;;;;;;;0.00;0.00;;;;;;;1.79;100.00;146677.81;4968778;28;20241;-64
2024/01/18 07:44:46;;;;;;;0.00;0.00;;;;;;;1.66;100.00;146645.66;4975411;28;20217;-64
2024/01/18 07:47:13;;;;;;;0.00;0.00;;;;;;;1.67;100.00;146649.34;4976536;28;20233;-65
2024/01/18 07:49:43;;;;;;;0.00;0.00;;;;;;;1.65;100.00;146643.16;4976325;28;20249;-65
2024/01/18 07:52:11;;;;;;;0.00;0.00;;;;;;;1.65;100.00;146643.16;4972051;28;20233;-65
2024/01/18 07:54:38;;;;;;;0.00;0.00;;;;;;;1.69;100.00;146653.06;4974265;28;20594;-65
2024/01/18 07:57:05;;;;;;;0.00;0.00;;;;;;;1.61;100.00;146634.47;4960360;28;20230;-65
2024/01/18 07:59:32;;;;;;;0.00;0.00;;;;;;;1.65;100.00;146643.16;4975179;28;20237;-65
2024/01/18 08:01:59;;;;;;;0.00;0.00;;;;;;;1.81;100.00;146681.53;4973271;28;20229;-58
2024/01/18 08:04:26;;;;;;;0.00;0.00;;;;;;;2.04;100.00;146737.25;4973301;28;20225;-65
2024/01/18 08:06:53;;;;;;;0.00;0.00;;;;;;;2.01;100.00;146729.81;4975658;28;20565;-64
2024/01/18 08:09:21;;;;;;;0.00;0.00;;;;;;;1.94;100.00;146712.50;4979349;28;20342;-64
2024/01/18 08:11:47;;;;;;;0.00;0.00;;;;;;;1.85;100.00;146692.69;4978187;28;20248;-64
2024/01/18 08:14:14;;;;;;;0.00;0.00;;;;;;;1.59;100.00;146630.78;4973076;28;20229;-64
2024/01/18 08:16:41;;;;;;;0.00;0.00;;;;;;;1.53;100.00;146615.94;4975406;28;20241;-64
2024/01/18 08:19:07;;;;;;;0.00;0.00;;;;;;;1.50;100.00;146608.50;4975070;28;20214;-64
2024/01/18 08:21:34;;;;;;;0.00;0.00;;;;;;;1.56;100.00;146623.38;4978546;28;20237;-64
2024/01/18 08:24:01;;;;;;;0.00;0.00;;;;;;;1.60;100.00;146632.00;4972740;28;20239;-64
2024/01/18 08:26:29;;;;;;;0.00;0.00;;;;;;;1.65;100.00;146644.38;4976572;28;20220;-64
2024/01/18 08:28:55;;;;;;;0.00;0.00;;;;;;;1.69;100.00;146653.06;4973966;28;20254;-65
2024/01/18 08:31:22;;;;;;;0.00;0.00;;;;;;;1.71;100.00;146658.03;4978636;28;20230;-65
2024/01/18 08:33:49;;;;;;;0.00;0.00;;;;;;;1.69;100.00;146654.28;4978708;28;20252;-65
2024/01/18 08:36:15;;;;;;;0.00;0.00;;;;;;;1.74;100.00;146666.66;4973348;28;20238;-65
2024/01/18 08:38:42;;;;;;;0.00;0.00;;;;;;;1.87;100.00;146696.38;4979161;28;20925;-64
2024/01/18 08:41:10;;;;;;;0.00;0.00;;;;;;;1.98;100.00;146723.59;4974780;28;20229;-64
2024/01/18 08:43:38;;;;;;;0.00;0.00;;;;;;;1.84;100.00;146690.22;4979192;28;20240;-64
2024/01/18 08:46:06;;;;;;;0.00;0.00;;;;;;;1.75;100.00;146667.94;4977141;28;20221;-64
2024/01/18 08:48:33;;;;;;;0.00;0.00;;;;;;;1.59;100.00;146629.56;4977349;28;20243;-64
2024/01/18 08:51:00;;;;;;;0.00;0.00;;;;;;;1.46;100.00;146599.88;4973227;28;20235;-64
2024/01/18 08:53:27;;;;;;;0.00;0.00;;;;;;;1.35;100.00;146571.38;4975613;28;20226;-64
2024/01/18 08:55:53;;;;;;;0.00;0.00;;;;;;;1.14;100.00;146523.16;4972528;28;20241;-64
2024/01/18 08:58:20;;;;;;;0.00;0.00;;;;;;;1.07;100.00;146504.56;4974263;28;20237;-64
2024/01/18 09:00:49;;;;;;;0.00;0.00;;;;;;;1.16;100.00;146526.84;4976305;28;20230;-64
2024/01/18 09:03:15;;;;;;;0.00;0.00;;;;;;;1.02;100.00;146494.72;4974495;28;20233;-64
2024/01/18 09:05:42;;;;;;;0.00;0.00;;;;;;;0.92;100.00;146469.97;4977063;28;20767;-64
2024/01/18 09:08:09;;;;;;;0.00;0.00;;;;;;;0.93;100.00;146472.44;4972976;28;20304;-64
2024/01/18 09:10:37;;;;;;;0.00;0.00;;;;;;;0.78;100.00;146435.34;4976857;28;20291;-64
2024/01/18 09:13:04;;;;;;;0.00;0.00;;;;;;;0.81;100.00;146442.75;4972067;28;20218;-64
2024/01/18 09:15:30;;;;;;;0.00;0.00;;;;;;;0.78;100.00;146435.34;4976204;28;20231;-64
2024/01/18 09:17:58;;;;;;;0.00;0.00;;;;;;;0.80;100.00;146441.50;4970054;28;20662;-64
2024/01/18 09:20:25;;;;;;;0.00;0.00;;;;;;;0.76;100.00;146431.59;4975655;28;20263;-64
2024/01/18 09:22:51;;;;;;;0.00;0.00;;;;;;;0.67;100.00;146409.34;4975570;28;20238;-64
2024/01/18 09:25:18;;;;;;;0.00;0.00;;;;;;;0.62;100.00;146398.22;4976070;28;20251;-64
2024/01/18 09:27:45;;;;;;;0.00;0.00;;;;;;;0.55;100.00;146382.13;4975959;28;20224;-64
2024/01/18 09:30:12;;;;;;;0.00;0.00;;;;;;;0.47;100.00;146362.38;4975189;28;20228;-64
2024/01/18 09:32:40;;;;;;;0.00;0.00;;;;;;;0.25;100.00;146310.47;4975419;28;20725;-64
2024/01/18 09:35:08;;;;;;;0.00;0.00;;;;;;;0.14;100.00;146284.47;4972381;28;20221;-64
2024/01/18 09:37:36;;;;;;;0.00;0.00;;;;;;;0.13;100.00;146280.78;4974829;28;20241;-64
2024/01/18 09:40:04;;;;;;;0.00;0.00;;;;;;;0.08;100.00;146268.41;4962939;28;20221;-64
2024/01/18 09:42:33;;;;;;;0.00;0.00;;;;;;;-0.11;100.00;146223.91;4987706;28;20236;-64
2024/01/18 09:45:05;;;;;;;0.00;0.00;;;;;;;-0.15;100.00;146214.03;4962977;28;20302;-64
2024/01/18 09:47:32;;;;;;;0.00;0.00;;;;;;;-0.30;100.00;146179.41;4971846;28;20245;-64
2024/01/18 09:49:59;;;;;;;0.00;0.00;;;;;;;-0.30;100.00;146178.22;4971404;28;20224;-64
2024/01/18 09:52:27;;;;;;;0.00;0.00;;;;;;;-0.30;100.00;146178.22;4974874;28;20229;-64
2024/01/18 09:54:54;;;;;;;0.00;0.00;;;;;;;-0.30;100.00;146179.41;4975834;28;20216;-64
2024/01/18 09:57:25;;;;;;;0.00;0.00;;;;;;;-0.13;100.00;146217.75;4975819;28;20589;-64
2024/01/18 09:59:58;;;;;;;0.00;0.00;;;;;;;-0.05;100.00;146237.53;4974462;28;20351;-64
2024/01/18 10:02:26;;;;;;;0.00;0.00;;;;;;;0.04;100.00;146259.75;4972070;28;20689;-64
2024/01/18 10:04:54;;;;;;;0.00;0.00;;;;;;;-0.10;100.00;146225.19;4976094;28;20767;-64
2024/01/18 10:07:20;;;;;;;0.00;0.00;;;;;;;0.02;100.00;146253.59;4971899;28;20237;-64
2024/01/18 10:09:48;;;;;;;0.00;0.00;;;;;;;0.10;100.00;146274.56;4974606;28;20324;-64
2024/01/18 10:12:15;;;;;;;0.00;0.00;;;;;;;0.07;100.00;146265.94;4973547;28;20241;-64
2024/01/18 10:14:43;;;;;;;0.00;0.00;;;;;;;0.16;100.00;146286.94;4973078;28;20233;-64
2024/01/18 10:17:10;;;;;;;0.00;0.00;;;;;;;0.08;100.00;146268.41;4972312;28;20325;-64
2024/01/18 10:19:37;;;;;;;0.00;0.00;;;;;;;0.11;100.00;146277.06;4975092;28;20229;-64
2024/01/18 10:22:05;;;;;;;0.00;0.00;;;;;;;0.23;100.00;146305.50;4972849;28;20225;-64
2024/01/18 10:24:31;;;;;;;0.00;0.00;;;;;;;0.28;100.00;146317.88;4969516;28;20243;-64
2024/01/18 10:27:06;;;;;;;0.00;0.00;;;;;;;0.28;100.00;146316.63;4972944;28;20226;-64
2024/01/18 10:29:35;;;;;;;0.00;0.00;;;;;;;0.32;100.00;146325.28;4980024;28;20237;-64
2024/01/18 10:32:02;;;;;;;0.00;0.00;;;;;;;0.19;100.00;146294.34;4970369;28;20234;-64
2024/01/18 10:34:29;;;;;;;0.00;0.00;;;;;;;0.24;100.00;146307.97;4974855;28;20229;-64
2024/01/18 10:36:56;;;;;;;0.00;0.00;;;;;;;0.16;100.00;146286.94;4974534;28;20686;-64
2024/01/18 10:39:22;;;;;;;0.00;0.00;;;;;;;0.09;100.00;146272.09;4974819;28;20251;-64
2024/01/18 10:41:49;;;;;;;0.00;0.00;;;;;;;-0.02;100.00;146244.94;4975063;28;20260;-64
2024/01/18 10:44:17;;;;;;;0.00;0.00;;;;;;;-0.11;100.00;146222.69;4960848;28;20229;-64
2024/01/18 10:46:44;;;;;;;0.00;0.00;;;;;;;-0.16;100.00;146211.56;4973092;28;20230;-64
2024/01/18 10:49:11;;;;;;;0.00;0.00;;;;;;;-0.14;100.00;146215.28;4970020;28;20216;-64
2024/01/18 10:51:39;;;;;;;0.00;0.00;;;;;;;-0.03;100.00;146243.69;4974877;28;20231;-64
2024/01/18 10:54:08;;;;;;;0.00;0.00;;;;;;;-0.04;100.00;146241.22;4968431;28;20229;-64
2024/01/18 10:56:36;;;;;;;0.00;0.00;;;;;;;0.04;100.00;146259.75;4973328;28;20236;-64
2024/01/18 10:59:04;;;;;;;0.00;0.00;;;;;;;0.07;100.00;146265.94;4970936;28;20228;-64
2024/01/18 11:01:34;;;;;;;0.00;0.00;;;;;;;-0.12;100.00;146221.44;4973861;28;20237;-65
2024/01/18 11:04:01;;;;;;;0.00;0.00;;;;;;;0.01;100.00;146251.13;4971407;28;20596;-64
2024/01/18 11:06:28;;;;;;;0.00;0.00;;;;;;;-0.07;100.00;146233.81;4974189;28;20607;-65
2024/01/18 11:08:57;;;;;;;0.00;0.00;;;;;;;0.03;100.00;146256.06;4970830;28;20232;-64
2024/01/18 11:11:25;;;;;;;0.00;0.00;;;;;;;-0.02;100.00;146244.94;4976815;28;20243;-64
2024/01/18 11:13:52;;;;;;;0.00;0.00;;;;;;;-0.06;100.00;146235.06;4976574;28;20240;-64
2024/01/18 11:16:19;;;;;;;0.00;0.00;;;;;;;-0.27;100.00;146184.38;4969717;28;20228;-64
2024/01/18 11:18:52;;;;;;;0.00;0.00;;;;;;;-0.08;100.00;146230.13;4974218;28;20825;-64
2024/01/18 11:21:21;;;;;;;0.00;0.00;;;;;;;-0.10;100.00;146225.19;4970774;28;20709;-64